Terminal Aerodrome Forecast
Issued by NWS

Home | Current Version | Previous Version | Text Only | Print | Product List | Glossary On
Versions: 1 2 3 4 5 6 7 8 9 10 11 12 13 14 15 16 17 18 19 20
000
FTUS46 KSEW 210528
TAFBLI
TAF
KBLI 210528Z 2106/2206 15024G35KT P6SM OVC028 WS020/18050KT
     FM211400 14030G43KT P6SM -RA SCT020 BKN030 OVC045 WS020/18050KT
     FM212000 16018G30KT P6SM -SHRA SCT018 BKN025 BKN040
     FM212300 17015G25KT P6SM -SHRA SCT025 BKN040=

USA.gov is the U.S. government's official web portal to all federal, state and local government web resources and services.